Ariana — C6DM3 — position and weather

sailwx.info

Track history (hours):
 
Tides and Currents Weather Stations Pressure Air Temp Water Temp Dewpoint Dewpoint Depression Visibility Wind Speed Wind Dir Waves Ship Positions

Ariana

Last reported at 2019-Oct-07 19:24 UTC. Time now 2019-Oct-14 10:58 UTC.
Position N 52°17' E 004°03'.

Length 229 m; draft 7.2 m.

Type: Cargo ship. MMSI: 311000716.

Date/timePositionNaut miles runAvg speedWind from/ knotsBaromVisibWave heightAir tempDewpointWater temp
2019-Oct-07 19:24N 52°17' E 004°03'  
2019-Oct-01 13:13N 35°01' E 129°03'1 0.0
2019-Oct-01 01:36N 35°01' E 129°03'0 3.3
2019-Oct-01 01:30N 35°01' E 129°03'265 9.6
2019-Sep-29 22:02N 36°24' E 123°54'2213.0
2019-Sep-29 20:22N 36°44' E 123°42'18011.8
2019-Sep-29 05:11N 37°50' E 120°13'212.9
2019-Sep-29 05:00N 37°48' E 120°11'611.1
2019-Sep-29 04:30N 37°43' E 120°09'510.9
2019-Sep-29 04:00N 37°39' E 120°14'4 7.1
2019-Sep-29 03:26N 37°39' E 120°19'0 0.1
2019-Sep-29 02:59N 37°39' E 120°19'0 0.0
2019-Sep-29 02:29N 37°39' E 120°19'0 0.0
2019-Sep-29 01:59N 37°39' E 120°19'0 0.0
2019-Sep-29 01:29N 37°39' E 120°19'0 0.0
2019-Sep-29 00:56N 37°39' E 120°19'0 0.0
2019-Sep-29 00:29N 37°39' E 120°19'0 0.0
2019-Sep-28 23:59N 37°39' E 120°19'0 0.0
2019-Sep-28 23:23N 37°39' E 120°19'0 0.0
2019-Sep-28 22:53N 37°39' E 120°19'0 0.0
2019-Sep-28 22:29N 37°39' E 120°19'0 0.0
2019-Sep-28 21:59N 37°39' E 120°19'0 0.0
2019-Sep-28 21:29N 37°39' E 120°19'0 0.0
2019-Sep-28 20:50N 37°39' E 120°19'0 0.0
2019-Sep-28 20:23N 37°39' E 120°19'0 0.0
2019-Sep-28 19:59N 37°39' E 120°19'0 0.0
2019-Sep-28 19:29N 37°39' E 120°19'0 0.0
2019-Sep-28 18:59N 37°39' E 120°19'0 0.0
2019-Sep-28 18:29N 37°39' E 120°19'0 0.0
2019-Sep-28 17:23N 37°39' E 120°19'0 0.0
2019-Sep-28 16:59N 37°39' E 120°19'0 0.0
2019-Sep-28 16:29N 37°39' E 120°19'0 0.0
2019-Sep-28 15:38N 37°39' E 120°19'0 0.0
2019-Sep-28 05:56N 37°39' E 120°19'0 0.0
2019-Sep-28 05:26N 37°39' E 120°19'0 0.0
2019-Sep-28 04:50N 37°39' E 120°19'0 0.0
2019-Sep-28 04:20N 37°39' E 120°19'0 0.0
2019-Sep-28 03:50N 37°39' E 120°19'0 0.0
2019-Sep-28 02:56N 37°39' E 120°19'0 0.0
2019-Sep-28 02:26N 37°39' E 120°19'0 0.0
2019-Sep-28 01:50N 37°39' E 120°19'0 0.0
2019-Sep-28 01:29N 37°39' E 120°19'0 0.0
2019-Sep-28 00:44N 37°39' E 120°19'0 0.0
2019-Sep-28 00:29N 37°39' E 120°19'0 0.0
2019-Sep-27 23:56N 37°39' E 120°19'0 0.0
2019-Sep-27 23:23N 37°39' E 120°19'0 0.0
2019-Sep-27 22:53N 37°39' E 120°19'0 0.0
2019-Sep-27 22:26N 37°39' E 120°19'0 0.0
2019-Sep-27 21:53N 37°39' E 120°19'0 0.0
2019-Sep-27 21:26N 37°39' E 120°19'0 0.0
2019-Sep-27 20:50N 37°39' E 120°19'0 0.0
2019-Sep-27 19:59N 37°39' E 120°19'  
Track history (hours):
 
Tides and Currents Weather Stations Pressure Air Temp Water Temp Dewpoint Dewpoint Depression Visibility Wind Speed Wind Dir Waves Ship Positions

Ariana

Last reported at 2019-Oct-07 19:24 UTC. Time now 2019-Oct-14 10:58 UTC.
Position N 52°17' E 004°03'.

Length 229 m; draft 7.2 m.

Type: Cargo ship. MMSI: 311000716.

Date/timePositionNaut miles runAvg speedWind from/ knotsBaromVisibWave heightAir tempDewpointWater temp
2019-Oct-07 19:24N 52°17' E 004°03'  
2019-Oct-01 13:13N 35°01' E 129°03'1 0.0
2019-Oct-01 01:36N 35°01' E 129°03'0 3.3
2019-Oct-01 01:30N 35°01' E 129°03'265 9.6
2019-Sep-29 22:02N 36°24' E 123°54'2213.0
2019-Sep-29 20:22N 36°44' E 123°42'18011.8
2019-Sep-29 05:11N 37°50' E 120°13'212.9
2019-Sep-29 05:00N 37°48' E 120°11'611.1
2019-Sep-29 04:30N 37°43' E 120°09'510.9
2019-Sep-29 04:00N 37°39' E 120°14'4 7.1
2019-Sep-29 03:26N 37°39' E 120°19'0 0.1
2019-Sep-29 02:59N 37°39' E 120°19'0 0.0
2019-Sep-29 02:29N 37°39' E 120°19'0 0.0
2019-Sep-29 01:59N 37°39' E 120°19'0 0.0
2019-Sep-29 01:29N 37°39' E 120°19'0 0.0
2019-Sep-29 00:56N 37°39' E 120°19'0 0.0
2019-Sep-29 00:29N 37°39' E 120°19'0 0.0
2019-Sep-28 23:59N 37°39' E 120°19'0 0.0
2019-Sep-28 23:23N 37°39' E 120°19'0 0.0
2019-Sep-28 22:53N 37°39' E 120°19'0 0.0
2019-Sep-28 22:29N 37°39' E 120°19'0 0.0
2019-Sep-28 21:59N 37°39' E 120°19'0 0.0
2019-Sep-28 21:29N 37°39' E 120°19'0 0.0
2019-Sep-28 20:50N 37°39' E 120°19'0 0.0
2019-Sep-28 20:23N 37°39' E 120°19'0 0.0
2019-Sep-28 19:59N 37°39' E 120°19'0 0.0
2019-Sep-28 19:29N 37°39' E 120°19'0 0.0
2019-Sep-28 18:59N 37°39' E 120°19'0 0.0
2019-Sep-28 18:29N 37°39' E 120°19'0 0.0
2019-Sep-28 17:23N 37°39' E 120°19'0 0.0
2019-Sep-28 16:59N 37°39' E 120°19'0 0.0
2019-Sep-28 16:29N 37°39' E 120°19'0 0.0
2019-Sep-28 15:38N 37°39' E 120°19'0 0.0
2019-Sep-28 05:56N 37°39' E 120°19'0 0.0
2019-Sep-28 05:26N 37°39' E 120°19'0 0.0
2019-Sep-28 04:50N 37°39' E 120°19'0 0.0
2019-Sep-28 04:20N 37°39' E 120°19'0 0.0
2019-Sep-28 03:50N 37°39' E 120°19'0 0.0
2019-Sep-28 02:56N 37°39' E 120°19'0 0.0
2019-Sep-28 02:26N 37°39' E 120°19'0 0.0
2019-Sep-28 01:50N 37°39' E 120°19'0 0.0
2019-Sep-28 01:29N 37°39' E 120°19'0 0.0
2019-Sep-28 00:44N 37°39' E 120°19'0 0.0
2019-Sep-28 00:29N 37°39' E 120°19'0 0.0
2019-Sep-27 23:56N 37°39' E 120°19'0 0.0
2019-Sep-27 23:23N 37°39' E 120°19'0 0.0
2019-Sep-27 22:53N 37°39' E 120°19'0 0.0
2019-Sep-27 22:26N 37°39' E 120°19'0 0.0
2019-Sep-27 21:53N 37°39' E 120°19'0 0.0
2019-Sep-27 21:26N 37°39' E 120°19'0 0.0
2019-Sep-27 20:50N 37°39' E 120°19'0 0.0
2019-Sep-27 19:59N 37°39' E 120°19'  

Dump ship's entire track history